Latest Weather Observations for Karratha

IDW60801

Issued at 10:53 pm WST Sunday 21 April 2019 (issued every 10 minutes, with the page automatically refreshed every 10 minutes)

About weather observations | Map of weather stations | Latest weather observations for WA | Other Formats
Station Details ID: 004083 Name: KARRATHA AERO Lat: -20.71 Lon: 116.77 Height: 5.3 m
Data from the previous 72 hours. | See also: Recent months at Karratha
Date/Time
WST
Temp
°C
App
Temp
°C
Dew
Point
°C
Rel
Hum
%
Delta-T
°C
Wind Press
QNH
hPa
Press
MSL
hPa
Rain since
9am
mm
Dir  Spd
km/h
Gust
km/h
Spd
kts
Gust
kts
21/10:30pm 25.7 20.2 1.8 21 11.4 ESE 20 24 11 13 1014.6 1014.6 0.0
21/10:00pm 24.3 20.7 5.1 29 9.7 ESE 13 17 7 9 1014.7 1014.7 0.0
21/09:30pm 24.6 20.5 6.4 31 9.4 ESE 17 20 9 11 1014.7 1014.7 0.0
21/09:00pm 24.2 21.1 9.0 38 8.2 E 15 19 8 10 1014.7 1014.7 0.0
21/08:30pm 24.3 21.0 9.5 39 8.1 E 17 20 9 11 1014.5 1014.5 0.0
21/08:00pm 24.5 22.5 12.8 48 6.7 E 15 17 8 9 1014.1 1014.1 0.0
21/07:30pm 24.4 23.8 15.6 58 5.3 E 13 15 7 8 1013.8 1013.8 0.0
21/07:00pm 25.4 24.6 15.1 53 6.2 E 13 15 7 8 1013.2 1013.2 0.0
21/06:30pm 26.4 25.1 14.8 49 7.0 ENE 15 17 8 9 1012.8 1012.8 0.0
21/06:00pm 27.4 25.6 14.4 45 7.8 ENE 17 20 9 11 1012.5 1012.5 0.0
21/05:30pm 28.6 27.1 14.1 41 8.7 ENE 15 17 8 9 1012.3 1012.3 0.0
21/05:00pm 30.2 27.1 10.2 29 11.4 ENE 17 20 9 11 1012.2 1012.2 0.0
21/04:30pm 32.0 27.4 3.9 17 14.5 ESE 17 24 9 13 1012.1 1012.1 0.0
21/04:00pm 32.2 27.3 4.1 17 14.6 ESE 19 24 10 13 1012.1 1012.1 0.0
21/03:30pm 32.4 26.9 4.2 17 14.7 E 22 28 12 15 1012.2 1012.2 0.0
21/03:00pm 32.7 27.3 4.5 17 14.8 ESE 22 30 12 16 1012.3 1012.3 0.0
21/02:30pm 32.7 26.9 4.5 17 14.8 E 24 33 13 18 1012.5 1012.5 0.0
21/02:00pm 31.7 26.7 8.0 23 13.1 ENE 24 33 13 18 1012.7 1012.7 0.0
21/01:30pm 30.7 24.6 6.6 22 12.9 ENE 28 35 15 19 1013.0 1013.0 0.0
21/01:00pm 30.4 24.5 7.6 24 12.4 ENE 28 33 15 18 1013.3 1013.3 0.0
21/12:30pm 29.9 23.5 5.2 21 12.9 ENE 28 35 15 19 1013.7 1013.7 0.0
21/12:00pm 29.9 23.3 5.9 22 12.7 ENE 30 35 16 19 1014.1 1014.1 0.0
21/11:30am 29.1 22.1 3.9 20 12.8 ENE 30 35 16 19 1014.6 1014.6 0.0
21/11:00am 28.3 21.5 5.2 23 11.9 ENE 30 37 16 20 1015.0 1015.0 0.0
21/10:30am 27.9 20.7 2.9 20 12.4 E 30 39 16 21 1015.5 1015.5 0.0
21/10:00am 26.7 19.0 3.2 22 11.6 E 33 41 18 22 1015.7 1015.7 0.0
21/09:30am 26.5 18.9 3.7 23 11.3 E 33 41 18 22 1015.8 1015.8 0.0
21/09:00am 26.3 18.6 2.3 21 11.6 E 32 41 17 22 1015.9 1015.9 0.0
21/08:30am 25.4 17.7 2.2 22 11.1 ESE 32 41 17 22 1015.7 1015.7 0.0
21/08:00am 24.7 16.9 1.6 22 10.9 E 32 41 17 22 1015.6 1015.6 0.0
21/07:30am 24.1 17.8 1.7 23 10.6 ESE 24 32 13 17 1015.4 1015.4 0.0
21/07:00am 23.6 18.3 1.9 24 10.2 ESE 19 26 10 14 1015.1 1015.1 0.0
21/06:30am 23.0 18.6 2.5 26 9.7 SE 15 22 8 12 1014.4 1014.4 0.0
21/06:00am 23.3 18.1 2.7 26 9.8 ESE 19 24 10 13 1014.0 1014.0 0.0
21/05:30am 22.4 19.0 4.0 30 8.9 E 11 22 6 12 1013.8 1013.8 0.0
21/05:00am 21.5 19.2 7.3 40 7.3 E 9 11 5 6 1013.5 1013.5 0.0
21/04:30am 22.4 20.5 7.4 38 7.8 ENE 7 9 4 5 1013.6 1013.6 0.0
21/04:00am 22.9 21.1 7.1 36 8.2 E 6 7 3 4 1013.5 1013.5 0.0
21/03:30am 24.3 20.4 3.6 26 10.1 ESE 13 19 7 10 1013.3 1013.3 0.0
21/03:00am 25.0 20.4 3.6 25 10.5 ESE 17 22 9 12 1013.2 1013.2 0.0
21/02:30am 25.3 20.4 3.9 25 10.6 ESE 19 24 10 13 1013.3 1013.3 0.0
21/02:00am 25.1 21.7 5.8 29 9.9 SE 13 20 7 11 1013.4 1013.4 0.0
21/01:30am 24.3 21.6 7.4 34 8.9 SE 11 13 6 7 1013.5 1013.5 0.0
21/01:00am 26.0 22.1 7.1 30 10.0 ESE 17 20 9 11 1013.5 1013.5 0.0
21/12:30am 26.5 22.4 8.0 31 9.9 ESE 19 24 10 13 1013.5 1013.5 0.0
21/12:00am 26.8 22.9 8.7 32 9.8 ESE 19 24 10 13 1013.5 1013.5 0.0
 
Date/Time
WST
Temp
°C
App
Temp
°C
Dew
Point
°C
Rel
Hum
%
Delta-T
°C
Wind Press
QNH
hPa
Press
MSL
hPa
Rain since
9am
mm
Dir  Spd
km/h
Gust
km/h
Spd
kts
Gust
kts
20/11:30pm 26.7 23.8 9.5 34 9.5 ESE 15 17 8 9 1013.5 1013.5 0.0
20/11:00pm 25.9 24.3 12.7 44 7.7 SE 13 15 7 8 1013.7 1013.7 0.0
20/10:30pm 26.1 24.0 12.5 42 7.9 SE 15 17 8 9 1013.7 1013.7 0.0
20/10:00pm 25.7 26.4 17.9 62 4.9 SSE 11 13 6 7 1013.7 1013.7 0.0
20/09:30pm 25.9 27.5 18.3 63 4.8 SSE 7 9 4 5 1013.6 1013.6 0.0
20/09:00pm 26.7 28.3 19.1 63 4.9 S 9 9 5 5 1013.4 1013.4 0.0
20/08:30pm 27.3 29.3 19.9 64 4.8 SSW 9 11 5 6 1013.1 1013.1 0.0
20/08:00pm 27.9 29.5 19.9 61 5.2 SW 11 13 6 7 1012.7 1012.7 0.0
20/07:30pm 29.0 31.2 19.6 57 6.1 WSW 7 13 4 7 1012.4 1012.4 0.0
20/07:00pm 28.9 32.1 20.6 61 5.5 WNW 4 15 2 8 1011.8 1011.8 0.0
20/06:30pm 28.9 30.3 20.4 60 5.6 NE 13 17 7 9 1011.3 1011.3 0.0
20/06:00pm 29.4 30.8 21.1 61 5.5 NE 15 20 8 11 1010.9 1010.9 0.0
20/05:30pm 30.1 30.1 19.8 54 6.8 NE 19 22 10 12 1010.7 1010.7 0.0
20/05:00pm 30.7 30.9 19.4 51 7.4 NE 17 22 9 12 1010.5 1010.5 0.0
20/04:30pm 31.0 30.2 18.4 47 8.1 NNE 20 26 11 14 1010.3 1010.3 0.0
20/04:00pm 31.4 30.7 18.7 46 8.2 NNE 20 26 11 14 1010.2 1010.2 0.0
20/03:30pm 31.6 30.6 17.9 44 8.8 NNE 20 26 11 14 1010.4 1010.4 0.0
20/03:00pm 31.9 30.1 17.0 41 9.5 NNE 22 26 12 14 1010.5 1010.5 0.0
20/02:30pm 32.1 29.9 16.8 40 9.7 NNE 24 28 13 15 1010.6 1010.6 0.0
20/02:00pm 32.7 30.3 16.5 37 10.2 NNE 24 32 13 17 1010.6 1010.6 0.0
20/01:30pm 33.1 30.8 14.7 33 11.3 NE 20 28 11 15 1010.8 1010.8 0.0
20/01:00pm 31.9 30.4 16.2 38 9.8 NNE 19 24 10 13 1011.2 1011.2 0.0
20/12:30pm 32.4 30.5 14.1 33 11.1 NE 17 22 9 12 1011.6 1011.6 0.0
20/12:00pm 32.0 29.5 12.3 30 11.7 NE 17 22 9 12 1012.2 1012.2 0.0
20/11:30am 31.7 29.5 12.0 30 11.6 NE 15 22 8 12 1012.6 1012.6 0.0
20/11:00am 31.7 29.5 12.0 30 11.6 E 15 22 8 12 1012.9 1012.9 0.0
20/10:30am 31.0 27.3 11.4 30 11.4 ESE 22 30 12 16 1013.2 1013.2 0.0
20/10:00am 30.6 27.4 11.1 30 11.2 SE 19 26 10 14 1013.4 1013.4 0.0
20/09:30am 29.2 25.9 10.8 32 10.5 SE 19 24 10 13 1013.4 1013.4 0.0
20/09:00am 28.5 25.6 11.1 34 9.9 SSE 17 24 9 13 1013.4 1013.4 0.0
20/08:30am 27.6 24.5 11.6 37 9.2 S 19 24 10 13 1013.2 1013.2 0.0
20/08:00am 26.4 23.6 11.3 39 8.6 S 17 20 9 11 1012.9 1012.9 0.0
20/07:30am 25.4 23.4 11.6 42 7.8 S 13 17 7 9 1012.5 1012.5 0.0
20/07:00am 24.5 22.6 11.8 45 7.2 SSW 13 15 7 8 1012.3 1012.3 0.0
20/06:30am 24.2 22.2 11.5 45 7.2 SSW 13 15 7 8 1011.9 1011.9 0.0
20/06:00am 24.5 23.4 11.8 45 7.2 SSW 9 11 5 6 1011.6 1011.6 0.0
20/05:30am 24.7 23.5 11.6 44 7.4 S 9 11 5 6 1011.4 1011.4 0.0
20/05:00am 24.9 23.7 11.5 43 7.6 SSW 9 11 5 6 1011.4 1011.4 0.0
20/04:30am 25.3 23.8 10.7 40 8.2 S 9 11 5 6 1011.2 1011.2 0.0
20/04:00am 25.9 24.8 10.5 38 8.6 SSW 7 11 4 6 1011.2 1011.2 0.0
20/03:30am 26.2 24.7 10.4 37 8.8 S 9 13 5 7 1011.0 1011.0 0.0
20/03:00am 26.5 24.5 10.2 36 9.1 S 11 15 6 8 1011.0 1011.0 0.0
20/02:30am 26.8 24.4 10.1 35 9.3 SSW 13 20 7 11 1011.1 1011.1 0.0
20/02:00am 27.1 24.7 9.9 34 9.6 SSW 13 17 7 9 1011.2 1011.2 0.0
20/01:30am 27.1 24.3 9.9 34 9.6 SSW 15 17 8 9 1011.5 1011.5 0.0
20/01:00am 27.5 24.4 10.2 34 9.7 SSW 17 20 9 11 1011.6 1011.6 0.0
20/12:30am 27.6 25.0 10.8 35 9.5 SSW 15 20 8 11 1011.8 1011.8 0.0
20/12:00am 27.7 25.8 11.7 37 9.2 SW 13 17 7 9 1011.8 1011.8 0.0
 
Date/Time
WST
Temp
°C
App
Temp
°C
Dew
Point
°C
Rel
Hum
%
Delta-T
°C
Wind Press
QNH
hPa
Press
MSL
hPa
Rain since
9am
mm
Dir  Spd
km/h
Gust
km/h
Spd
kts
Gust
kts
19/11:30pm 28.3 26.5 12.2 37 9.4 SSW 13 19 7 10 1011.5 1011.5 0.0
19/11:00pm 28.3 26.3 12.6 38 9.2 SW 15 17 8 9 1011.5 1011.5 0.0
19/10:30pm 28.6 26.5 13.7 40 8.9 WSW 17 20 9 11 1011.3 1011.3 0.0
19/10:00pm 29.1 26.9 13.3 37 9.4 WSW 17 20 9 11 1011.3 1011.3 0.0
19/09:30pm 29.3 27.3 13.9 39 9.2 WSW 17 20 9 11 1011.4 1011.4 0.0
19/09:00pm 29.7 28.0 14.7 40 9.1 WSW 17 20 9 11 1011.3 1011.3 0.0
19/08:30pm 30.2 28.3 14.3 38 9.6 WSW 17 20 9 11 1011.0 1011.0 0.0
19/08:00pm 30.6 28.4 14.3 37 9.9 WSW 19 22 10 12 1010.7 1010.7 0.0
19/07:30pm 31.0 28.7 14.2 36 10.2 WSW 19 24 10 13 1010.4 1010.4 0.0
19/07:00pm 31.5 28.7 13.3 33 10.9 WSW 20 26 11 14 1010.0 1010.0 0.0
19/06:30pm 32.1 29.5 13.3 31 11.3 WSW 19 22 10 12 1009.7 1009.7 0.0
19/06:00pm 32.8 30.1 13.4 30 11.7 WSW 20 26 11 14 1009.5 1009.5 0.0
19/05:30pm 33.5 30.4 13.5 29 12.1 SW 22 28 12 15 1009.2 1009.2 0.0
19/05:00pm 34.0 29.8 13.5 29 12.5 SW 28 33 15 18 1009.1 1009.1 0.0
19/04:30pm 35.2 31.9 15.0 30 12.6 WSW 26 35 14 19 1008.8 1008.8 0.0
19/04:00pm 33.5 31.5 18.4 40 9.8 W 26 32 14 17 1008.8 1008.8 0.0
19/03:30pm 34.4 31.6 17.2 36 11.0 W 28 35 15 19 1008.7 1008.7 0.0
19/03:00pm 35.0 33.1 17.7 36 11.2 W 24 28 13 15 1008.7 1008.7 0.0
19/02:30pm 35.1 33.1 16.4 32 11.9 WNW 22 28 12 15 1008.9 1008.9 0.0
19/02:00pm 34.3 32.4 16.6 34 11.3 WNW 22 30 12 16 1009.1 1009.1 0.0
19/01:30pm 34.4 32.0 15.3 31 11.9 W 22 28 12 15 1009.3 1009.3 0.0
19/01:00pm 34.0 31.6 16.4 35 11.2 W 24 32 13 17 1009.7 1009.7 0.0
19/12:30pm 33.5 31.1 16.4 36 10.8 W 24 30 13 16 1010.3 1010.3 0.0
19/12:00pm 33.2 30.7 15.2 33 11.2 WNW 22 28 12 15 1010.9 1010.9 0.0
19/11:30am 32.8 31.5 15.8 36 10.6 NW 17 20 9 11 1011.4 1011.4 0.0
19/11:00am 32.5 32.5 16.3 37 10.2 WSW 11 19 6 10 1012.0 1012.0 0.0
19/10:30am 31.3 30.4 14.9 37 10.1 S 13 17 7 9 1012.5 1012.5 0.0
19/10:00am 30.8 29.3 15.2 38 9.6 SW 17 26 9 14 1012.8 1012.8 0.0
19/09:30am 29.9 27.8 15.2 41 9.0 SSW 20 26 11 14 1012.9 1012.9 0.0
19/09:00am 29.3 26.5 15.4 42 8.5 SW 24 28 13 15 1012.9 1012.9 0.0
19/08:30am 29.1 27.5 16.0 45 8.1 SSW 19 24 10 13 1012.8 1012.8 0.0
19/08:00am 27.6 26.1 16.2 49 7.0 SW 19 24 10 13 1012.6 1012.6 0.0
19/07:30am 26.3 25.1 17.1 57 5.7 SW 19 22 10 12 1012.4 1012.4 0.0
19/07:00am 24.9 23.9 16.6 60 5.1 WSW 17 19 9 10 1012.2 1012.2 0.0
19/06:30am 24.5 23.8 16.5 61 4.9 WSW 15 15 8 8 1012.0 1012.0 0.0
19/06:00am 24.4 25.0 16.9 63 4.6 SW 9 11 5 6 1012.0 1012.0 0.0
19/05:30am 24.8 25.6 17.3 63 4.7 SW 9 13 5 7 1011.8 1011.8 0.0
19/05:00am 25.5 25.0 16.9 59 5.3 SW 15 19 8 10 1011.6 1011.6 0.0
19/04:30am 25.6 24.8 17.0 59 5.3 SW 17 20 9 11 1011.3 1011.3 0.0
19/04:00am 25.9 25.4 17.8 61 5.1 SW 17 20 9 11 1011.4 1011.4 0.0
19/03:30am 26.2 25.1 17.8 60 5.3 WSW 20 26 11 14 1011.4 1011.4 0.0
19/03:00am 26.4 24.7 18.0 60 5.3 WSW 24 33 13 18 1011.3 1011.3 0.0
19/02:30am 26.7 24.8 18.6 61 5.2 WSW 26 33 14 18 1011.5 1011.5 0.0
19/02:00am 26.8 25.8 18.9 62 5.1 WSW 22 28 12 15 1011.6 1011.6 0.0
19/01:30am 27.1 26.0 19.4 62 5.0 WSW 24 32 13 17 1011.9 1011.9 0.0
19/01:00am 27.3 25.6 19.9 64 4.8 WSW 28 33 15 18 1012.0 1012.0 0.0
19/12:30am 27.3 26.7 20.4 66 4.5 WSW 24 30 13 16 1012.2 1012.2 0.0
19/12:00am 27.5 26.4 20.3 65 4.7 WSW 26 33 14 18 1012.1 1012.1 0.0
 
Date/Time
WST
Temp
°C
App
Temp
°C
Dew
Point
°C
Rel
Hum
%
Delta-T
°C
Wind Press
QNH
hPa
Press
MSL
hPa
Rain since
9am
mm
Dir  Spd
km/h
Gust
km/h
Spd
kts
Gust
kts
18/11:30pm 27.6 27.2 20.9 67 4.4 WSW 24 30 13 16 1012.3 1012.3 0.0
18/11:00pm 27.6 27.1 21.4 69 4.1 WSW 26 32 14 17 1012.7 1012.7 0.0

Other formats

Comma delimited format used in spreadsheet applications
http://www.bom.gov.au/fwo/IDW60801/IDW60801.95307.axf

JavaScript Object Notation format (JSON) in row-major order
http://www.bom.gov.au/fwo/IDW60801/IDW60801.95307.json

Data quality

Most of these data are generated automatically and are frequently updated. Quality checks on data are not normally performed. It is possible for incorrect values to appear. Refer to information at About Latest Weather Observations and please check the disclaimer before using these data.